• Join FlightAware (Why Join?)
  • Login
  • US Flag 
06:22AM EDT


 

Airport Tracker/Info


-or-


 

Live Flight TrackerFlight Track Log ✈ RPA3228 ✈ 16-Jul-2013 ✈ KDCA - KBUF

Flight Track Log - Related Links

Times and Time Zones

All times are in EDT time to prevent confusion due to time zone crossing. See the RPA3228 flight status page for this flight to view local times or setup timezone preferences in your user account.

Time Position Orientation Groundspeed Altitude Reporting Facility
EDT Latitude Longitude Course Direction KTS MPH feet Rate Location/Type
10:36AM 38.9000 -77.0833 339° North 200 230 2,700  Level Potomac TRACON
10:37AM 39.1411 -77.1850 330° Northwest  Level FlightAware Approximate
10:37AM 38.9500 -77.1500 314° West 265 305 5,800  Level Potomac TRACON
10:38AM 39.2427 -77.2385 337° Northwest  Level FlightAware Approximate
10:38AM 39.0000 -77.2167 314° West 278 320 9,200  Level Potomac TRACON
10:39AM 39.3445 -77.2950 337° Northwest  Level FlightAware Approximate
10:39AM 39.0167 -77.3167 282° West 303 349 11,800  Level Potomac TRACON
10:40AM 39.4447 -77.3557 339° North  Level FlightAware Approximate
10:40AM 39.0500 -77.4333 290° West 358 412 14,400  Level Potomac TRACON
10:41AM 39.5409 -77.4038 339° North  Level FlightAware Approximate
10:42AM 39.1964 -77.4903 343° North 346 398 17,300  Level Washington Center
10:44AM 39.4372 -77.4731 North 358 412 22,700 2,100 Climbing New York Center
10:45AM 39.5419 -77.4642 North 364 419 24,600 1,680 Climbing New York Center
10:46AM 39.6508 -77.4556 North 376 433 26,200 1,140 Climbing New York Center
10:47AM 39.7636 -77.4556 360° North 393 452 27,000 420 Climbing New York Center
10:48AM 39.8783 -77.4531 North 405 466 27,100 480 Climbing New York Center
10:49AM 39.9931 -77.4883 347° North 405 466 28,000 240 Climbing New York Center
10:51AM 40.2403 -77.5831 344° North 416 479 28,000  Level Cleveland Center
10:52AM 40.3519 -77.6242 344° North 422 486 28,000  Level Cleveland Center
10:53AM 40.4614 -77.6686 343° North 422 486 28,000  Level Cleveland Center
10:54AM 40.5731 -77.7100 344° North 422 486 28,000  Level Cleveland Center
10:55AM 40.6867 -77.7544 343° North 422 486 28,000  Level Cleveland Center
10:56AM 40.8003 -77.7989 344° North 422 486 28,000  Level Cleveland Center
10:57AM 40.9097 -77.8411 344° North 422 486 28,000  Level Cleveland Center
10:58AM 41.0233 -77.8803 345° North 422 486 28,000  Level Cleveland Center
10:59AM 41.1244 -77.9231 342° North 428 493 28,000  Level Cleveland Center
11:00AM 41.2358 -77.9653 344° North 423 487 28,000 -660 Level Cleveland Center
11:01AM 41.3475 -78.0108 343° North 423 487 26,700 -1,020 Descending Cleveland Center
11:02AM 41.4547 -78.0508 344° North 418 481 26,000 -360 Descending Cleveland Center
11:03AM 41.5597 -78.0939 343° North 406 467 26,000  Level Cleveland Center
11:04AM 41.6650 -78.1344 344° North 400 460 26,000 -780 Level Cleveland Center
11:05AM 41.7681 -78.1750 344° North 395 455 24,500 -1,800 Descending Cleveland Center
11:06AM 41.8731 -78.2183 343° North 395 455 22,400 -2,100 Descending Cleveland Center
11:07AM 41.9783 -78.2619 343° North 389 448 20,400 -2,040 Descending Cleveland Center
11:08AM 42.0769 -78.3006 344° North 383 441 18,400 -1,980 Descending Cleveland Center
11:09AM 42.1653 -78.3364 343° North 378 435 16,500 -1,980 Descending Cleveland Center
11:10AM 42.2703 -78.3775 344° North 366 421 14,500 -1,920 Descending Cleveland Center
11:11AM 42.3606 -78.4139 343° North 356 410 12,700 -1,800 Descending Cleveland Center
11:12AM 42.4489 -78.4475 344° North 338 389 11,000 -1,380 Descending Cleveland Center
11:13AM 42.5267 -78.4814 342° North 318 366 10,000 -1,500 Descending Cleveland Center
11:14AM 42.5978 -78.5072 345° North 285 328 8,100 -1,860 Descending Cleveland Center
11:15AM 42.6714 -78.5386 343° North 273 314 6,300 -2,040 Descending Cleveland Center
11:16AM 42.7489 -78.5589 349° North 263 303 4,100 -1,140 Descending Cleveland Center
11:17AM 42.8219 -78.5706 353° North 263 303 4,100 -240 Level Cleveland Center
11:18AM 42.8925 -78.5542 10° North 251 289 3,700 -600 Descending Cleveland Center
11:19AM 42.9486 -78.5411 10° North 241 277 3,000 -720 Descending Cleveland Center